createdAt,value
2023-02-26T00:09:55.187Z,2.27
2023-02-26T00:20:00.807Z,2.30
2023-02-26T00:30:08.937Z,2.50
2023-02-26T00:40:22.530Z,2.60
2023-02-26T00:50:28.114Z,2.50
2023-02-26T01:00:32.716Z,2.40
2023-02-26T01:10:36.956Z,2.50
2023-02-26T01:20:46.386Z,1.83
2023-02-26T01:30:50.173Z,2.13
2023-02-26T01:41:17.443Z,2.10
2023-02-26T01:51:47.797Z,1.70
2023-02-26T02:01:54.494Z,1.90
2023-02-26T02:12:30.158Z,2.17
2023-02-26T02:22:59.589Z,2.47
2023-02-26T02:33:07.333Z,2.43
2023-02-26T02:43:15.290Z,2.33
2023-02-26T02:53:24.346Z,2.00
2023-02-26T03:03:32.658Z,1.97
2023-02-26T03:13:39.462Z,2.13
2023-02-26T03:23:56.632Z,2.07
2023-02-26T03:34:05.863Z,2.70
2023-02-26T03:44:12.917Z,2.43
2023-02-26T03:54:22.699Z,2.03
2023-02-26T04:04:43.280Z,2.03
2023-02-26T04:14:48.090Z,2.17
2023-02-26T04:24:51.535Z,2.13
2023-02-26T04:34:56.527Z,2.00
2023-02-26T04:45:00.402Z,2.27
2023-02-26T04:55:08.367Z,2.10
2023-02-26T05:05:14.528Z,2.30
2023-02-26T05:15:19.692Z,2.03
2023-02-26T05:25:22.999Z,2.00
2023-02-26T05:35:27.760Z,2.10
2023-02-26T05:45:31.007Z,1.70
2023-02-26T05:55:35.652Z,1.83
2023-02-26T06:05:38.901Z,1.57
2023-02-26T06:15:43.519Z,1.50
2023-02-26T06:25:46.922Z,1.80
2023-02-26T06:35:52.984Z,1.40
2023-02-26T06:45:59.004Z,1.83
2023-02-26T06:56:03.801Z,1.90
2023-02-26T07:06:25.997Z,1.70
2023-02-26T07:16:31.349Z,2.00
2023-02-26T07:26:34.624Z,1.60
2023-02-26T07:36:39.246Z,1.67
2023-02-26T07:46:42.524Z,1.70
2023-02-26T07:56:47.208Z,1.80
2023-02-26T08:06:50.423Z,1.80
2023-02-26T08:16:55.226Z,1.73
2023-02-26T08:26:58.476Z,1.70
2023-02-26T08:37:03.011Z,1.60
2023-02-26T08:47:06.250Z,1.50
2023-02-26T08:57:10.784Z,1.70
2023-02-26T09:07:14.097Z,1.40
2023-02-26T09:17:18.860Z,1.40
2023-02-26T09:27:22.138Z,1.33
2023-02-26T09:37:26.759Z,1.47
2023-02-26T09:47:39.406Z,1.40
2023-02-26T09:57:47.462Z,1.50
2023-02-26T10:07:58.779Z,1.10
2023-02-26T10:18:10.915Z,1.00
2023-02-26T10:28:32.582Z,1.40
2023-02-26T10:38:37.349Z,1.50
2023-02-26T10:48:59.606Z,1.10
2023-02-26T10:59:04.338Z,1.10
2023-02-26T11:09:26.953Z,1.40
2023-02-26T11:19:36.087Z,1.40
2023-02-26T11:29:41.918Z,1.57
2023-02-26T11:39:48.019Z,0.90
2023-02-26T11:49:54.460Z,1.40
2023-02-26T12:00:01.025Z,1.10
2023-02-26T12:10:04.221Z,1.10
2023-02-26T12:20:20.021Z,1.00
2023-02-26T12:30:40.381Z,1.10
2023-02-26T12:41:01.631Z,1.17
2023-02-26T12:51:12.372Z,1.30
2023-02-26T13:01:34.836Z,1.40
2023-02-26T13:11:52.916Z,1.30
2023-02-26T13:22:00.844Z,1.27
2023-02-26T13:32:13.624Z,1.27
2023-02-26T13:42:28.975Z,1.30
2023-02-26T13:52:34.343Z,1.10
2023-02-26T14:02:54.737Z,1.43
2023-02-26T14:13:09.912Z,1.20
2023-02-26T14:23:35.347Z,1.20
2023-02-26T14:33:44.174Z,1.40
2023-02-26T14:43:54.250Z,1.50
2023-02-26T14:54:16.520Z,1.50
2023-02-26T15:04:47.684Z,1.70
2023-02-26T15:15:05.656Z,1.10
2023-02-26T15:25:22.909Z,1.30
2023-02-26T15:35:29.303Z,1.23
2023-02-26T15:45:37.848Z,1.33
2023-02-26T15:55:48.402Z,1.40
2023-02-26T16:05:55.919Z,2.50
2023-02-26T16:16:05.080Z,2.03
2023-02-26T16:26:14.288Z,1.50
2023-02-26T16:36:21.704Z,1.90
2023-02-26T16:46:42.592Z,1.70
2023-02-26T16:56:48.813Z,1.70
2023-02-26T17:06:54.127Z,1.80
2023-02-26T17:16:57.281Z,1.60
2023-02-26T17:27:03.959Z,1.70
2023-02-26T17:37:07.889Z,1.80
2023-02-26T17:47:16.558Z,1.60
2023-02-26T17:57:22.104Z,1.80
2023-02-26T18:07:26.714Z,1.50
2023-02-26T18:17:32.238Z,2.10
2023-02-26T18:27:37.145Z,1.60
2023-02-26T18:37:40.414Z,1.37
2023-02-26T18:47:45.761Z,1.50
2023-02-26T18:57:49.104Z,1.63
2023-02-26T19:07:54.669Z,2.00
2023-02-26T19:17:57.928Z,1.93
2023-02-26T19:28:03.004Z,2.03
2023-02-26T19:38:06.153Z,2.20
2023-02-26T19:48:10.683Z,1.70
2023-02-26T19:58:14.136Z,2.00
2023-02-26T20:08:18.680Z,2.53
2023-02-26T20:18:21.900Z,2.30
2023-02-26T20:28:27.481Z,2.20
2023-02-26T20:38:30.912Z,1.87
2023-02-26T20:48:40.372Z,1.80
2023-02-26T20:58:43.556Z,1.90
2023-02-26T21:08:48.056Z,2.47
2023-02-26T21:18:51.277Z,2.23
2023-02-26T21:28:55.819Z,2.67
2023-02-26T21:38:58.953Z,3.03
2023-02-26T21:49:03.500Z,2.73
2023-02-26T21:59:07.014Z,3.40
2023-02-26T22:09:11.790Z,2.90
2023-02-26T22:19:15.008Z,2.83
2023-02-26T22:29:19.796Z,2.97
2023-02-26T22:39:22.943Z,2.77
2023-02-26T22:49:27.676Z,2.40
2023-02-26T22:59:30.876Z,2.10
2023-02-26T23:09:35.726Z,2.23
2023-02-26T23:19:38.992Z,2.17
2023-02-26T23:29:45.765Z,2.67
2023-02-26T23:39:49.164Z,2.10
2023-02-26T23:49:54.005Z,2.47
2023-02-26T23:59:57.371Z,2.33
